createdAt,value
2022-12-01T10:56:12.984Z,-3.80
2022-12-01T10:58:47.947Z,-3.80
2022-12-01T11:01:24.821Z,-3.80
2022-12-01T11:04:07.498Z,-3.80
2022-12-01T11:06:35.468Z,-3.80
2022-12-01T11:09:16.016Z,-3.90
2022-12-01T11:11:43.249Z,-3.90
2022-12-01T11:14:26.222Z,-4.00
2022-12-01T11:16:54.167Z,-4.00
2022-12-01T11:19:34.503Z,-4.00
2022-12-01T11:22:24.564Z,-4.10
2022-12-01T11:24:54.342Z,-4.10
2022-12-01T11:27:24.632Z,-4.20
2022-12-01T11:30:05.939Z,-4.10
2022-12-01T11:32:39.172Z,-4.20
2022-12-01T11:35:21.402Z,-4.20
2022-12-01T11:38:27.926Z,-4.20
2022-12-01T11:40:56.831Z,-4.30
2022-12-01T11:43:36.192Z,-4.30
2022-12-01T11:46:07.584Z,-4.30
2022-12-01T11:48:36.417Z,-4.30
2022-12-01T11:51:16.565Z,-4.30
2022-12-01T11:53:44.318Z,-4.40
2022-12-01T11:56:14.843Z,-4.40
2022-12-01T11:58:47.471Z,-4.40
2022-12-01T12:01:35.366Z,-4.40
2022-12-01T12:04:16.372Z,-4.40
2022-12-01T12:07:10.736Z,-4.40
2022-12-01T12:09:56.248Z,-4.50
2022-12-01T12:12:58.147Z,-4.60
2022-12-01T12:15:33.917Z,-4.60
2022-12-01T12:18:14.263Z,-4.60
2022-12-01T12:21:08.617Z,-4.60
2022-12-01T12:23:47.527Z,-4.60
2022-12-01T12:26:20.610Z,-4.60
2022-12-01T12:28:56.416Z,-4.60
2022-12-01T12:31:54.439Z,-4.60
2022-12-01T12:34:36.378Z,-4.50
2022-12-01T12:37:19.097Z,-4.80
2022-12-01T12:40:06.403Z,-4.90
2022-12-01T12:42:51.745Z,-4.90
2022-12-01T12:45:39.644Z,-4.90
2022-12-01T12:48:16.208Z,-5.00
2022-12-01T12:50:42.988Z,-5.10
2022-12-01T12:53:19.718Z,-5.10
2022-12-01T12:55:51.025Z,-5.20
2022-12-01T12:58:33.737Z,-5.20
2022-12-01T13:01:19.052Z,-5.20
2022-12-01T13:03:55.578Z,-5.10
2022-12-01T13:06:45.902Z,-5.10
2022-12-01T13:09:35.356Z,-5.00
2022-12-01T13:12:09.117Z,-5.00
2022-12-01T13:14:40.953Z,-5.00
2022-12-01T13:17:21.056Z,-5.00
2022-12-01T13:19:48.714Z,-4.90
2022-12-01T13:22:18.144Z,-4.80
2022-12-01T13:24:45.287Z,-4.80
2022-12-01T13:27:19.583Z,-4.80
2022-12-01T13:29:52.514Z,-4.80
2022-12-01T13:32:31.710Z,-4.70
2022-12-01T13:34:59.666Z,-4.70
2022-12-01T13:37:33.791Z,-4.80
2022-12-01T13:40:20.965Z,-4.70
2022-12-01T13:43:15.216Z,-4.80
2022-12-01T13:45:42.461Z,-4.80
2022-12-01T13:48:37.617Z,-4.60
2022-12-01T13:51:05.121Z,-4.90
2022-12-01T13:53:37.068Z,-5.00
2022-12-01T13:56:04.003Z,-4.90
2022-12-01T13:58:33.658Z,-5.00
2022-12-01T14:01:19.587Z,-5.00
2022-12-01T14:04:03.776Z,-5.10
2022-12-01T14:06:50.893Z,-5.10
2022-12-01T14:09:30.576Z,-5.10
2022-12-01T14:12:01.754Z,-5.00
2022-12-01T14:14:36.427Z,-5.10
2022-12-01T14:17:03.620Z,-5.10
2022-12-01T14:19:45.347Z,-5.10
2022-12-01T14:22:50.500Z,-5.20
2022-12-01T14:25:20.432Z,-5.20
2022-12-01T14:27:52.700Z,-5.30
2022-12-01T14:30:41.412Z,-5.30
2022-12-01T14:33:38.956Z,-5.30
2022-12-01T14:36:24.022Z,-5.30
2022-12-01T14:39:02.196Z,-5.50
2022-12-01T14:41:41.867Z,-5.50
2022-12-01T14:44:22.556Z,-5.40
2022-12-01T14:47:10.782Z,-5.40
2022-12-01T14:49:59.576Z,-5.40
2022-12-01T14:52:29.537Z,-5.40
2022-12-01T14:55:03.007Z,-5.30
2022-12-01T14:57:37.070Z,-5.30
2022-12-01T15:00:25.109Z,-5.30
2022-12-01T15:02:55.940Z,-5.30
2022-12-01T15:05:28.884Z,-5.30
2022-12-01T15:08:33.348Z,-5.30
2022-12-01T15:11:04.210Z,-5.30
2022-12-01T15:13:49.163Z,-5.20
2022-12-01T15:16:19.224Z,-5.20
2022-12-01T15:18:46.328Z,-5.20
2022-12-01T15:21:33.492Z,-5.20
2022-12-01T15:24:06.149Z,-5.20
2022-12-01T15:26:49.156Z,-5.30
2022-12-01T15:29:17.822Z,-5.40
2022-12-01T15:31:49.370Z,-5.50
2022-12-01T15:34:44.305Z,-5.70
2022-12-01T15:37:18.519Z,-5.50
2022-12-01T15:43:07.614Z,-5.90
2022-12-01T15:45:59.050Z,-5.80
2022-12-01T15:48:34.721Z,-5.80
2022-12-01T15:51:30.618Z,-5.70
2022-12-01T15:54:01.100Z,-5.80
2022-12-01T15:56:34.733Z,-5.70
2022-12-01T15:59:37.178Z,-5.70
2022-12-01T16:02:22.755Z,-5.70
2022-12-01T16:05:01.621Z,-5.70
2022-12-01T16:08:04.408Z,-5.70
2022-12-01T16:10:29.364Z,-5.80
2022-12-01T16:13:33.489Z,-5.80
2022-12-01T16:16:00.612Z,-5.80
2022-12-01T16:18:36.656Z,-5.80
2022-12-01T16:21:05.505Z,-5.80
2022-12-01T16:23:33.176Z,-5.70
2022-12-01T16:26:02.146Z,-5.70
2022-12-01T16:28:36.039Z,-5.70
2022-12-01T16:31:05.988Z,-5.70
2022-12-01T16:33:39.744Z,-5.60
2022-12-01T16:36:14.322Z,-5.60
2022-12-01T16:38:42.033Z,-5.70
2022-12-01T16:41:25.829Z,-5.60
2022-12-01T16:44:20.244Z,-5.60
2022-12-01T16:46:40.970Z,-5.70
2022-12-01T16:49:15.046Z,-5.70
2022-12-01T16:52:11.148Z,-5.70
2022-12-01T16:54:31.667Z,-5.80
2022-12-01T16:56:58.625Z,-5.80
2022-12-01T16:59:27.624Z,-5.90
2022-12-01T17:01:54.575Z,-5.90
2022-12-01T17:04:21.501Z,-5.90
2022-12-01T17:06:48.450Z,-5.90
2022-12-01T17:09:15.338Z,-5.90
2022-12-01T17:11:42.482Z,-5.90
2022-12-01T17:14:09.869Z,-5.90
2022-12-01T17:16:37.785Z,-5.90
2022-12-01T17:19:04.708Z,-6.00
2022-12-01T17:21:31.636Z,-6.00
2022-12-01T17:23:58.502Z,-6.00
2022-12-01T17:26:25.476Z,-6.10
2022-12-01T17:28:55.101Z,-6.10
2022-12-01T17:31:22.477Z,-6.20
2022-12-01T17:33:50.549Z,-6.20
2022-12-01T17:36:19.354Z,-6.20
2022-12-01T17:38:47.221Z,-6.30
2022-12-01T17:41:18.478Z,-6.30
2022-12-01T17:43:45.482Z,-6.40
2022-12-01T17:46:13.492Z,-6.40
2022-12-01T17:48:45.359Z,-6.40
2022-12-01T17:51:14.009Z,-6.40
2022-12-01T17:53:41.350Z,-6.50
2022-12-01T17:56:14.036Z,-6.60
2022-12-01T17:58:41.742Z,-6.60
2022-12-01T18:01:18.483Z,-6.70
2022-12-01T18:03:46.224Z,-6.80
2022-12-01T18:06:13.386Z,-6.80
2022-12-01T18:08:41.532Z,-6.90
2022-12-01T18:11:12.038Z,-6.80
2022-12-01T18:13:40.872Z,-6.90
2022-12-01T18:16:10.816Z,-6.90
2022-12-01T18:18:38.828Z,-6.90
2022-12-01T18:21:12.393Z,-6.90
2022-12-01T18:23:39.988Z,-7.00
2022-12-01T18:26:15.422Z,-7.00
2022-12-01T18:28:43.665Z,-7.00
2022-12-01T18:31:16.008Z,-7.00
2022-12-01T18:33:44.289Z,-7.10
2022-12-01T18:36:20.445Z,-7.10
2022-12-01T18:38:49.066Z,-7.00
2022-12-01T18:41:18.375Z,-7.00
2022-12-01T18:43:48.157Z,-7.00
2022-12-01T18:46:15.646Z,-7.00
2022-12-01T18:48:50.943Z,-7.00
2022-12-01T18:51:18.252Z,-7.00
2022-12-01T18:53:46.189Z,-6.90
2022-12-01T18:56:15.642Z,-6.90
2022-12-01T18:58:43.828Z,-7.00
2022-12-01T19:01:28.521Z,-7.00
2022-12-01T19:03:56.629Z,-7.00
2022-12-01T19:06:24.474Z,-7.10
2022-12-01T19:08:52.821Z,-7.20
2022-12-01T19:11:20.304Z,-7.30
2022-12-01T19:13:48.275Z,-7.30
2022-12-01T19:16:19.486Z,-7.30
2022-12-01T19:18:46.875Z,-7.30
2022-12-01T19:21:17.291Z,-7.30
2022-12-01T19:23:46.687Z,-7.30
2022-12-01T19:26:16.779Z,-7.30
2022-12-01T19:28:45.556Z,-7.40
2022-12-01T19:31:17.546Z,-7.40
2022-12-01T19:33:44.835Z,-7.50
2022-12-01T19:36:14.459Z,-7.50
2022-12-01T19:38:41.398Z,-7.50
2022-12-01T19:41:09.121Z,-7.60
2022-12-01T19:43:36.805Z,-7.60
2022-12-01T19:46:08.615Z,-7.70
2022-12-01T19:48:35.855Z,-7.70
2022-12-01T19:51:03.221Z,-7.70
2022-12-01T19:53:33.660Z,-7.80
2022-12-01T19:56:05.940Z,-7.70
2022-12-01T19:58:33.851Z,-7.80
2022-12-01T20:01:10.503Z,-7.80
2022-12-01T20:03:39.215Z,-7.90
2022-12-01T20:06:09.442Z,-7.90
2022-12-01T20:08:36.417Z,-7.80
2022-12-01T20:11:07.157Z,-7.80
2022-12-01T20:13:39.233Z,-7.80
2022-12-01T20:16:09.661Z,-7.80
2022-12-01T20:18:37.674Z,-7.90
2022-12-01T20:21:11.444Z,-7.80
2022-12-01T20:23:38.951Z,-7.80
2022-12-01T20:26:07.599Z,-7.80
2022-12-01T20:28:36.214Z,-7.80
2022-12-01T20:31:07.870Z,-7.80
2022-12-01T20:33:34.980Z,-7.80
2022-12-01T20:36:01.948Z,-7.90
2022-12-01T20:38:28.892Z,-7.80
2022-12-01T20:40:56.078Z,-7.80
2022-12-01T20:43:22.953Z,-7.80
2022-12-01T20:45:49.984Z,-7.80
2022-12-01T20:48:17.184Z,-7.80
2022-12-01T20:50:44.746Z,-7.80
2022-12-01T20:53:11.751Z,-7.80
2022-12-01T20:55:38.669Z,-7.80
2022-12-01T20:58:08.885Z,-7.80
2022-12-01T21:00:38.314Z,-7.90
2022-12-01T21:03:06.178Z,-8.00
2022-12-01T21:05:33.375Z,-8.10
2022-12-01T21:08:00.954Z,-8.10
2022-12-01T21:10:28.477Z,-8.10
2022-12-01T21:13:22.126Z,-8.20
2022-12-01T21:16:00.129Z,-8.20
2022-12-01T21:18:49.568Z,-8.20
2022-12-01T21:21:30.573Z,-8.20
2022-12-01T21:24:09.763Z,-8.30
2022-12-01T21:26:38.844Z,-8.30
2022-12-01T21:29:20.745Z,-8.30
2022-12-01T21:31:53.008Z,-8.30
2022-12-01T21:34:25.296Z,-8.40
2022-12-01T21:36:55.067Z,-8.50
2022-12-01T21:39:23.130Z,-8.50
2022-12-01T21:41:52.178Z,-8.50
2022-12-01T21:44:21.894Z,-8.50
2022-12-01T21:46:56.362Z,-8.50
2022-12-01T21:49:38.245Z,-8.60
2022-12-01T21:52:19.532Z,-8.60
2022-12-01T21:54:47.009Z,-8.60
2022-12-01T21:57:43.113Z,-8.70
2022-12-01T22:00:25.993Z,-8.70
2022-12-01T22:03:18.944Z,-8.70
2022-12-01T22:06:13.644Z,-8.90
2022-12-01T22:08:38.673Z,-8.90
2022-12-01T22:11:18.687Z,-9.00
2022-12-01T22:13:53.507Z,-9.10
2022-12-01T22:16:33.805Z,-9.20
2022-12-01T22:19:22.157Z,-9.30
2022-12-01T22:22:08.632Z,-9.30
2022-12-01T22:24:44.033Z,-9.30
2022-12-01T22:27:39.761Z,-9.20
2022-12-01T22:30:06.587Z,-9.20
2022-12-01T22:32:57.171Z,-9.10
2022-12-01T22:35:33.015Z,-9.00
2022-12-01T22:38:10.775Z,-9.00
2022-12-01T22:40:56.743Z,-9.00
2022-12-01T22:43:42.421Z,-8.90
2022-12-01T22:46:37.838Z,-8.80
2022-12-01T22:49:10.913Z,-8.70
2022-12-01T22:51:46.528Z,-8.60
2022-12-01T22:54:16.380Z,-8.60
2022-12-01T22:56:58.175Z,-8.60
2022-12-01T22:59:32.803Z,-8.50
2022-12-01T23:02:02.192Z,-8.50
2022-12-01T23:04:41.845Z,-8.30
2022-12-01T23:07:28.720Z,-8.30
2022-12-01T23:10:01.289Z,-8.20
2022-12-01T23:12:31.872Z,-8.10
2022-12-01T23:15:13.937Z,-8.20
2022-12-01T23:17:41.018Z,-8.10
2022-12-01T23:20:10.700Z,-8.10
2022-12-01T23:22:38.537Z,-8.00
2022-12-01T23:25:16.681Z,-8.00
2022-12-01T23:27:45.031Z,-8.00
2022-12-01T23:30:13.600Z,-8.00
2022-12-01T23:32:40.717Z,-7.90
2022-12-01T23:35:14.902Z,-7.90
2022-12-01T23:37:43.569Z,-7.80
2022-12-01T23:40:21.724Z,-7.70
2022-12-01T23:42:48.787Z,-7.70
2022-12-01T23:45:27.114Z,-7.70
2022-12-01T23:47:55.510Z,-7.70
2022-12-01T23:50:24.763Z,-7.60
2022-12-01T23:52:52.061Z,-7.60
2022-12-01T23:55:27.113Z,-7.50
2022-12-01T23:57:54.388Z,-7.40
